createdAt,value
2022-09-13T00:00:41.717Z,3.50
2022-09-13T00:03:10.127Z,3.30
2022-09-13T00:05:38.289Z,5.80
2022-09-13T00:08:06.068Z,3.70
2022-09-13T00:10:35.476Z,3.77
2022-09-13T00:13:02.237Z,3.83
2022-09-13T00:15:28.843Z,7.63
2022-09-13T00:17:56.018Z,4.50
2022-09-13T00:20:22.719Z,5.07
2022-09-13T00:22:49.192Z,4.17
2022-09-13T00:25:15.701Z,5.13
2022-09-13T00:27:42.222Z,5.60
2022-09-13T00:30:09.484Z,4.87
2022-09-13T00:32:36.182Z,5.03
2022-09-13T00:35:04.698Z,4.87
2022-09-13T00:37:33.289Z,5.27
2022-09-13T00:40:00.657Z,5.90
2022-09-13T00:42:29.094Z,5.23
2022-09-13T00:45:02.804Z,5.70
2022-09-13T00:47:39.852Z,6.60
2022-09-13T00:50:14.569Z,6.13
2022-09-13T00:52:46.691Z,5.93
2022-09-13T00:55:31.192Z,6.90
2022-09-13T00:58:05.059Z,6.63
2022-09-13T01:00:31.874Z,8.30
2022-09-13T01:03:02.251Z,6.20
2022-09-13T01:05:36.114Z,7.10
2022-09-13T01:08:03.971Z,7.40
2022-09-13T01:10:31.813Z,6.23
2022-09-13T01:13:15.066Z,6.77
2022-09-13T01:15:41.725Z,10.13
2022-09-13T01:18:09.569Z,7.03
2022-09-13T01:21:21.206Z,6.60
2022-09-13T01:24:12.473Z,6.33
2022-09-13T01:26:57.113Z,6.90
2022-09-13T01:29:26.503Z,6.27
2022-09-13T01:31:58.764Z,7.07
2022-09-13T01:34:28.280Z,7.50
2022-09-13T01:37:00.240Z,8.10
2022-09-13T01:39:50.562Z,7.23
2022-09-13T01:42:27.088Z,7.40
2022-09-13T01:45:09.382Z,7.97
2022-09-13T01:47:52.353Z,8.00
2022-09-13T01:50:24.705Z,7.77
2022-09-13T01:52:57.175Z,8.17
2022-09-13T01:55:27.325Z,8.07
2022-09-13T01:58:06.809Z,9.43
2022-09-13T02:00:41.374Z,8.07
2022-09-13T02:03:14.753Z,8.43
2022-09-13T02:05:47.798Z,8.57
2022-09-13T02:08:21.761Z,8.07
2022-09-13T02:10:54.063Z,10.37
2022-09-13T02:13:25.804Z,8.47
2022-09-13T02:16:00.791Z,9.10
2022-09-13T02:18:36.466Z,9.67
2022-09-13T02:21:12.662Z,10.53
2022-09-13T02:23:47.260Z,8.10
2022-09-13T02:26:15.491Z,8.63
2022-09-13T02:28:48.600Z,8.60
2022-09-13T02:31:19.810Z,8.47
2022-09-13T02:33:54.536Z,8.80
2022-09-13T02:36:28.289Z,8.47
2022-09-13T02:39:02.508Z,10.30
2022-09-13T02:41:39.506Z,11.53
2022-09-13T02:44:19.814Z,9.53
2022-09-13T02:47:14.220Z,9.13
2022-09-13T02:49:52.800Z,9.67
2022-09-13T02:52:37.378Z,10.50
2022-09-13T02:55:18.931Z,11.40
2022-09-13T02:57:48.646Z,11.17
2022-09-13T03:00:15.280Z,10.90
2022-09-13T03:02:44.124Z,10.53
2022-09-13T03:05:11.008Z,11.70
2022-09-13T03:07:37.515Z,11.97
2022-09-13T03:10:15.187Z,11.50
2022-09-13T03:13:00.404Z,12.03
2022-09-13T03:16:06.605Z,12.27
2022-09-13T03:19:03.588Z,13.90
2022-09-13T03:21:58.043Z,12.03
2022-09-13T03:24:54.929Z,12.20
2022-09-13T03:27:49.675Z,12.33
2022-09-13T03:30:18.154Z,13.20
2022-09-13T03:33:00.394Z,13.53
2022-09-13T03:35:36.418Z,16.90
2022-09-13T03:38:14.685Z,12.83
2022-09-13T03:41:00.105Z,14.00
2022-09-13T03:43:41.680Z,14.47
2022-09-13T03:46:35.121Z,14.30
2022-09-13T03:49:06.705Z,15.20
2022-09-13T03:51:33.985Z,16.80
2022-09-13T03:54:04.852Z,17.53
2022-09-13T03:56:31.530Z,17.07
2022-09-13T03:58:58.496Z,18.30
2022-09-13T04:01:25.722Z,24.33
2022-09-13T04:03:56.346Z,20.70
2022-09-13T04:06:23.233Z,20.63
2022-09-13T04:08:49.889Z,26.53
2022-09-13T04:11:16.533Z,23.37
2022-09-13T04:13:43.054Z,26.57
2022-09-13T04:16:09.578Z,26.83
2022-09-13T04:18:36.256Z,29.60
2022-09-13T04:21:04.626Z,27.20
2022-09-13T04:23:31.473Z,27.77
2022-09-13T04:26:05.181Z,26.93
2022-09-13T04:28:31.764Z,28.20
2022-09-13T04:30:58.294Z,32.47
2022-09-13T04:33:25.166Z,32.20
2022-09-13T04:35:58.442Z,33.30
2022-09-13T04:38:24.965Z,34.80
2022-09-13T04:40:56.070Z,35.60
2022-09-13T04:43:23.652Z,30.43
2022-09-13T04:45:50.812Z,33.00
2022-09-13T04:48:17.418Z,31.73
2022-09-13T04:50:44.896Z,31.60
2022-09-13T04:53:11.854Z,31.90
2022-09-13T04:55:38.989Z,33.47
2022-09-13T04:58:05.574Z,31.20
2022-09-13T05:00:33.631Z,33.87
2022-09-13T05:03:00.451Z,34.33
2022-09-13T05:05:28.848Z,38.13
2022-09-13T05:07:55.644Z,34.33
2022-09-13T05:10:22.180Z,36.03
2022-09-13T05:12:49.093Z,35.10
2022-09-13T05:15:15.720Z,38.97
2022-09-13T05:17:42.230Z,35.90
2022-09-13T05:20:09.479Z,34.23
2022-09-13T05:22:35.984Z,36.50
2022-09-13T05:25:02.472Z,36.10
2022-09-13T05:27:28.998Z,37.07
2022-09-13T05:29:55.488Z,35.20
2022-09-13T05:32:22.018Z,35.30
2022-09-13T05:34:48.504Z,35.20
2022-09-13T05:37:15.031Z,35.83
2022-09-13T05:40:07.348Z,33.87
2022-09-13T05:42:28.046Z,32.37
2022-09-13T05:44:54.584Z,38.00
2022-09-13T05:47:21.317Z,35.63
2022-09-13T05:50:08.984Z,37.53
2022-09-13T05:52:34.303Z,34.67
2022-09-13T05:55:00.795Z,35.43
2022-09-13T05:57:27.294Z,37.60
2022-09-13T05:59:53.796Z,32.80
2022-09-13T06:02:20.352Z,33.80
2022-09-13T06:04:47.040Z,36.03
2022-09-13T06:07:13.565Z,33.90
2022-09-13T06:09:40.035Z,34.60
2022-09-13T06:12:06.855Z,30.97
2022-09-13T06:14:33.378Z,32.13
2022-09-13T06:16:59.857Z,35.13
2022-09-13T06:19:26.359Z,33.47
2022-09-13T06:21:52.860Z,34.73
2022-09-13T06:24:19.357Z,29.30
2022-09-13T06:26:45.839Z,29.10
2022-09-13T06:29:12.984Z,34.27
2022-09-13T06:31:43.753Z,30.23
2022-09-13T06:34:12.552Z,31.77
2022-09-13T06:36:39.087Z,28.53
2022-09-13T06:39:06.618Z,34.10
2022-09-13T06:41:33.601Z,32.37
2022-09-13T06:44:02.082Z,26.77
2022-09-13T06:46:30.631Z,30.93
2022-09-13T06:49:04.736Z,27.77
2022-09-13T06:51:32.612Z,26.53
2022-09-13T06:54:00.106Z,22.67
2022-09-13T06:56:29.875Z,17.53
2022-09-13T06:58:58.742Z,15.37
2022-09-13T07:01:34.311Z,16.80
2022-09-13T07:04:04.209Z,14.40
2022-09-13T07:06:36.695Z,14.90
2022-09-13T07:09:05.924Z,13.90
2022-09-13T07:11:36.305Z,14.73
2022-09-13T07:14:03.994Z,14.83
2022-09-13T07:16:32.483Z,15.23
2022-09-13T07:19:01.498Z,16.83
2022-09-13T07:21:29.371Z,11.77
2022-09-13T07:23:57.221Z,11.63
2022-09-13T07:26:24.975Z,13.67
2022-09-13T07:28:55.368Z,9.33
2022-09-13T07:31:28.947Z,10.77
2022-09-13T07:33:58.559Z,6.97
2022-09-13T07:36:26.717Z,8.73
2022-09-13T07:38:53.270Z,7.23
2022-09-13T07:41:22.116Z,6.03
2022-09-13T07:43:49.500Z,6.27
2022-09-13T07:46:21.888Z,8.03
2022-09-13T07:48:50.093Z,6.97
2022-09-13T07:51:20.798Z,9.23
2022-09-13T07:53:50.709Z,8.97
2022-09-13T07:56:23.468Z,9.93
2022-09-13T07:58:51.479Z,9.47
2022-09-13T08:01:26.494Z,9.77
2022-09-13T08:03:58.427Z,10.00
2022-09-13T08:06:26.833Z,7.50
2022-09-13T08:08:54.072Z,9.10
2022-09-13T08:11:26.061Z,8.90
2022-09-13T08:13:53.359Z,8.90
2022-09-13T08:16:21.664Z,5.67
2022-09-13T08:18:51.001Z,8.07
2022-09-13T08:21:18.040Z,4.80
2022-09-13T08:23:45.152Z,9.63
2022-09-13T08:26:11.896Z,7.20
2022-09-13T08:28:43.010Z,8.07
2022-09-13T08:31:12.267Z,13.90
2022-09-13T08:33:41.966Z,7.40
2022-09-13T08:36:10.833Z,5.37
2022-09-13T08:38:37.699Z,3.57
2022-09-13T08:41:25.892Z,4.73
2022-09-13T08:44:23.882Z,12.17
2022-09-13T08:46:51.261Z,6.23
2022-09-13T08:49:32.309Z,7.13
2022-09-13T08:52:29.933Z,5.80
2022-09-13T08:54:58.570Z,7.63
2022-09-13T08:58:09.930Z,5.83
2022-09-13T09:00:41.233Z,7.87
2022-09-13T09:03:26.776Z,8.17
2022-09-13T09:05:54.528Z,5.43
2022-09-13T09:08:31.345Z,6.53
2022-09-13T09:11:03.234Z,10.90
2022-09-13T09:13:48.230Z,8.97
2022-09-13T09:16:39.669Z,7.13
2022-09-13T09:19:22.876Z,7.87
2022-09-13T09:21:51.741Z,6.63
2022-09-13T09:24:23.390Z,6.60
2022-09-13T09:26:50.392Z,6.43
2022-09-13T09:29:26.171Z,6.27
2022-09-13T09:32:20.529Z,5.50
2022-09-13T09:35:07.596Z,10.47
2022-09-13T09:37:37.083Z,7.23
2022-09-13T09:40:11.281Z,5.10
2022-09-13T09:42:49.409Z,6.77
2022-09-13T09:45:32.244Z,5.37
2022-09-13T09:48:04.653Z,5.07
2022-09-13T09:50:36.483Z,5.40
2022-09-13T09:53:14.771Z,6.77
2022-09-13T09:55:53.403Z,5.97
2022-09-13T09:58:37.453Z,8.77
2022-09-13T10:01:09.549Z,4.50
2022-09-13T10:03:40.019Z,4.97
2022-09-13T10:06:14.487Z,4.73
2022-09-13T10:08:44.097Z,6.20
2022-09-13T10:11:10.903Z,5.23
2022-09-13T10:13:38.840Z,6.03
2022-09-13T10:16:21.611Z,6.70
2022-09-13T10:18:48.511Z,6.00
2022-09-13T10:21:18.034Z,7.97
2022-09-13T10:23:47.149Z,4.60
2022-09-13T10:26:18.031Z,5.87
2022-09-13T10:28:59.854Z,45.53
2022-09-13T10:31:34.445Z,4.13
2022-09-13T10:34:04.610Z,3.93
2022-09-13T10:36:52.612Z,5.47
2022-09-13T10:39:22.423Z,4.90
2022-09-13T10:41:53.745Z,4.30
2022-09-13T10:44:31.864Z,3.20
2022-09-13T10:47:02.014Z,3.80
2022-09-13T10:49:36.290Z,5.27
2022-09-13T10:52:33.429Z,7.60
2022-09-13T10:55:21.284Z,8.53
2022-09-13T10:57:50.063Z,8.97
2022-09-13T11:00:22.898Z,6.90
2022-09-13T11:03:05.856Z,7.63
2022-09-13T11:05:54.318Z,4.43
2022-09-13T11:08:36.348Z,4.63
2022-09-13T11:11:30.836Z,4.63
2022-09-13T11:14:21.852Z,5.33
2022-09-13T11:17:07.186Z,8.60
2022-09-13T11:19:43.666Z,5.50
2022-09-13T11:22:33.419Z,8.60
2022-09-13T11:25:05.340Z,5.87
2022-09-13T11:28:03.435Z,6.20
2022-09-13T11:30:35.852Z,5.63
2022-09-13T11:33:27.019Z,4.47
2022-09-13T11:36:15.293Z,6.63
2022-09-13T11:38:56.894Z,6.63
2022-09-13T11:41:46.602Z,5.57
2022-09-13T11:44:37.221Z,8.80
2022-09-13T11:47:15.325Z,5.53
2022-09-13T11:50:03.137Z,4.77
2022-09-13T11:52:39.099Z,6.33
2022-09-13T11:55:16.870Z,6.37
2022-09-13T11:57:53.185Z,8.70
2022-09-13T12:00:27.903Z,6.37
2022-09-13T12:03:26.334Z,6.93
2022-09-13T12:06:01.481Z,5.67
2022-09-13T12:08:42.557Z,9.07
2022-09-13T12:11:16.082Z,9.50
2022-09-13T12:14:00.811Z,8.13
2022-09-13T12:16:39.363Z,7.63
2022-09-13T12:19:15.759Z,7.23
2022-09-13T12:21:44.430Z,6.63
2022-09-13T12:24:21.735Z,6.37
2022-09-13T12:26:57.132Z,5.47
2022-09-13T12:29:54.199Z,8.93
2022-09-13T12:32:23.712Z,4.63
2022-09-13T12:34:57.659Z,10.90
2022-09-13T12:38:02.008Z,9.60
2022-09-13T12:40:54.843Z,6.13
2022-09-13T12:43:55.319Z,5.27
2022-09-13T12:46:27.960Z,7.30
2022-09-13T12:49:03.549Z,6.37
2022-09-13T12:51:54.317Z,8.63
2022-09-13T12:54:39.563Z,5.53
2022-09-13T12:57:28.243Z,6.73
2022-09-13T13:00:20.998Z,4.73
2022-09-13T13:03:11.899Z,5.63
2022-09-13T13:05:45.895Z,7.60
2022-09-13T13:08:21.530Z,5.70
2022-09-13T13:11:06.709Z,10.27
2022-09-13T13:13:43.155Z,6.60
2022-09-13T13:16:23.632Z,6.20
2022-09-13T13:18:58.336Z,7.60
2022-09-13T13:21:39.116Z,9.43
2022-09-13T13:24:18.768Z,10.53
2022-09-13T13:26:56.566Z,9.63
2022-09-13T13:29:30.147Z,4.37
2022-09-13T13:32:08.399Z,9.00
2022-09-13T13:34:50.229Z,9.07
2022-09-13T13:37:19.431Z,5.77
2022-09-13T13:39:47.403Z,5.33
2022-09-13T13:42:27.943Z,8.73
2022-09-13T13:44:54.418Z,8.50
2022-09-13T13:47:20.849Z,7.87
2022-09-13T13:49:52.693Z,9.13
2022-09-13T13:52:22.477Z,12.10
2022-09-13T13:54:55.729Z,5.40
2022-09-13T13:57:38.891Z,5.10
2022-09-13T14:00:15.741Z,7.07
2022-09-13T14:02:53.511Z,7.43
2022-09-13T14:05:41.793Z,6.60
2022-09-13T14:08:32.741Z,5.97
2022-09-13T14:11:11.129Z,9.27
2022-09-13T14:14:03.315Z,7.27
2022-09-13T14:17:14.145Z,9.57
2022-09-13T14:19:50.182Z,11.80
2022-09-13T14:22:19.135Z,9.07
2022-09-13T14:24:51.256Z,13.87
2022-09-13T14:27:20.197Z,7.13
2022-09-13T14:29:49.388Z,10.03
2022-09-13T14:32:23.814Z,7.20
2022-09-13T14:34:59.630Z,8.93
2022-09-13T14:37:32.792Z,11.43
2022-09-13T14:40:08.357Z,9.03
2022-09-13T14:42:43.671Z,6.43
2022-09-13T14:45:16.700Z,16.47
2022-09-13T14:47:47.619Z,7.33
2022-09-13T14:50:22.733Z,7.20
2022-09-13T14:52:53.726Z,8.30
2022-09-13T14:55:28.706Z,7.10
2022-09-13T14:58:04.209Z,10.80
2022-09-13T15:00:44.012Z,15.40
2022-09-13T15:03:16.615Z,5.70
2022-09-13T15:05:51.979Z,6.60
2022-09-13T15:08:33.513Z,8.33
2022-09-13T15:11:12.725Z,11.70
2022-09-13T15:13:42.830Z,12.27
2022-09-13T15:16:29.681Z,5.90
2022-09-13T15:19:26.924Z,14.07
2022-09-13T15:22:03.140Z,7.60
2022-09-13T15:24:33.280Z,7.23
2022-09-13T15:27:07.496Z,7.00
2022-09-13T15:29:37.485Z,6.30
2022-09-13T15:32:06.623Z,6.00
2022-09-13T15:34:46.624Z,8.20
2022-09-13T15:37:18.770Z,8.03
2022-09-13T15:39:52.870Z,5.23
2022-09-13T15:42:19.582Z,4.50
2022-09-13T15:44:46.886Z,7.40
2022-09-13T15:47:18.290Z,5.67
2022-09-13T15:49:50.999Z,4.90
2022-09-13T15:52:22.618Z,5.53
2022-09-13T15:54:50.635Z,4.93
2022-09-13T15:57:22.551Z,3.87
2022-09-13T15:59:49.443Z,4.90
2022-09-13T16:02:23.172Z,4.10
2022-09-13T16:04:50.297Z,5.80
2022-09-13T16:07:17.871Z,3.37
2022-09-13T16:09:45.495Z,4.27
2022-09-13T16:12:12.048Z,3.70
2022-09-13T16:14:39.277Z,5.70
2022-09-13T16:17:23.811Z,5.27
2022-09-13T16:19:51.278Z,8.57
2022-09-13T16:22:18.071Z,4.97
2022-09-13T16:24:44.606Z,5.53
2022-09-13T16:27:16.703Z,7.70
2022-09-13T16:29:44.599Z,5.50
2022-09-13T16:32:11.989Z,3.50
2022-09-13T16:34:38.559Z,4.47
2022-09-13T16:37:06.020Z,8.47
2022-09-13T16:39:32.829Z,5.70
2022-09-13T16:42:00.860Z,8.30
2022-09-13T16:44:27.645Z,5.20
2022-09-13T16:46:54.181Z,8.10
2022-09-13T16:49:20.788Z,5.73
2022-09-13T16:51:47.293Z,4.20
2022-09-13T16:54:13.964Z,6.03
2022-09-13T16:56:40.468Z,9.57
2022-09-13T16:59:06.999Z,3.43
2022-09-13T17:01:33.592Z,3.87
2022-09-13T17:04:00.513Z,5.47
2022-09-13T17:06:27.852Z,5.20
2022-09-13T17:08:57.073Z,6.43
2022-09-13T17:11:27.162Z,8.50
2022-09-13T17:13:56.370Z,8.97
2022-09-13T17:16:28.752Z,10.33
2022-09-13T17:18:58.215Z,7.13
2022-09-13T17:21:25.840Z,6.80
2022-09-13T17:23:53.099Z,5.97
2022-09-13T17:26:20.100Z,6.03
2022-09-13T17:28:46.672Z,6.37
2022-09-13T17:31:13.307Z,8.00
2022-09-13T17:33:39.873Z,7.10
2022-09-13T17:36:08.708Z,9.30
2022-09-13T17:38:36.499Z,6.60
2022-09-13T17:41:04.400Z,3.93
2022-09-13T17:43:31.070Z,7.33
2022-09-13T17:45:57.864Z,6.17
2022-09-13T17:48:24.414Z,3.27
2022-09-13T17:50:50.963Z,7.50
2022-09-13T17:53:17.471Z,4.77
2022-09-13T17:55:49.049Z,5.13
2022-09-13T17:58:16.156Z,4.67
2022-09-13T18:00:42.764Z,3.60
2022-09-13T18:03:09.587Z,3.43
2022-09-13T18:05:36.486Z,8.30
2022-09-13T18:08:03.281Z,4.57
2022-09-13T18:10:58.069Z,5.20
2022-09-13T18:13:18.437Z,6.30
2022-09-13T18:15:48.370Z,7.13
2022-09-13T18:18:16.497Z,3.57
2022-09-13T18:20:47.343Z,8.07
2022-09-13T18:23:14.120Z,3.80
2022-09-13T18:25:40.859Z,8.63
2022-09-13T18:28:07.418Z,3.90
2022-09-13T18:30:34.031Z,2.73
2022-09-13T18:33:00.825Z,4.20
2022-09-13T18:35:28.988Z,4.80
2022-09-13T18:37:55.750Z,5.53
2022-09-13T18:40:26.008Z,5.50
2022-09-13T18:42:52.633Z,4.17
2022-09-13T18:45:24.080Z,5.30
2022-09-13T18:47:50.587Z,5.07
2022-09-13T18:50:20.089Z,4.90
2022-09-13T18:52:46.965Z,4.33
2022-09-13T18:55:14.403Z,5.80
2022-09-13T18:57:41.177Z,4.57
2022-09-13T19:00:09.915Z,2.60
2022-09-13T19:02:51.975Z,5.03
2022-09-13T19:05:29.443Z,6.33
2022-09-13T19:07:58.001Z,4.33
2022-09-13T19:10:26.069Z,3.83
2022-09-13T19:12:57.156Z,5.60
2022-09-13T19:15:27.478Z,3.17
2022-09-13T19:17:57.798Z,4.90
2022-09-13T19:20:30.498Z,3.40
2022-09-13T19:22:58.967Z,8.07
2022-09-13T19:25:30.468Z,4.37
2022-09-13T19:27:57.884Z,3.67
2022-09-13T19:30:25.224Z,5.07
2022-09-13T19:32:55.774Z,2.87
2022-09-13T19:35:24.036Z,3.97
2022-09-13T19:37:50.803Z,5.60
2022-09-13T19:40:20.107Z,2.80
2022-09-13T19:42:47.047Z,6.27
2022-09-13T19:45:14.003Z,3.77
2022-09-13T19:48:25.759Z,4.67
2022-09-13T19:50:27.675Z,5.50
2022-09-13T19:52:54.430Z,7.63
2022-09-13T19:55:21.010Z,7.27
2022-09-13T19:57:47.516Z,4.47
2022-09-13T20:00:14.621Z,4.30
2022-09-13T20:02:41.178Z,2.87
2022-09-13T20:05:08.108Z,6.53
2022-09-13T20:07:35.945Z,3.50
2022-09-13T20:10:02.485Z,4.27
2022-09-13T20:12:28.952Z,2.90
2022-09-13T20:14:55.673Z,5.87
2022-09-13T20:17:22.176Z,3.87
2022-09-13T20:19:50.326Z,6.60
2022-09-13T20:22:17.073Z,2.80
2022-09-13T20:24:43.629Z,4.77
2022-09-13T20:27:10.445Z,3.67
2022-09-13T20:29:37.098Z,2.83
2022-09-13T20:32:04.074Z,1.67
2022-09-13T20:34:35.213Z,4.87
2022-09-13T20:37:01.857Z,2.63
2022-09-13T20:39:30.167Z,6.83
2022-09-13T20:41:56.691Z,4.67
2022-09-13T20:44:23.696Z,5.20
2022-09-13T20:46:50.198Z,4.10
2022-09-13T20:49:17.150Z,4.90
2022-09-13T20:51:46.792Z,5.80
2022-09-13T20:54:13.595Z,4.93
2022-09-13T20:56:40.444Z,5.90
2022-09-13T20:59:07.025Z,5.47
2022-09-13T21:01:34.388Z,5.40
2022-09-13T21:04:01.442Z,5.37
2022-09-13T21:06:30.454Z,6.90
2022-09-13T21:09:00.177Z,5.70
2022-09-13T21:11:34.231Z,5.20
2022-09-13T21:14:06.213Z,5.23
2022-09-13T21:16:39.358Z,4.97
2022-09-13T21:19:07.108Z,2.47
2022-09-13T21:21:36.293Z,5.63
2022-09-13T21:24:04.958Z,5.30
2022-09-13T21:26:32.508Z,4.97
2022-09-13T21:29:00.623Z,5.37
2022-09-13T21:31:32.460Z,3.53
2022-09-13T21:34:05.064Z,2.67
2022-09-13T21:36:34.698Z,6.67
2022-09-13T21:39:02.449Z,4.17
2022-09-13T21:41:30.478Z,5.93
2022-09-13T21:43:57.184Z,3.40
2022-09-13T21:46:29.127Z,4.67
2022-09-13T21:48:58.541Z,7.00
2022-09-13T21:51:30.938Z,5.27
2022-09-13T21:53:59.452Z,8.17
2022-09-13T21:56:28.490Z,6.33
2022-09-13T21:59:01.057Z,6.33
2022-09-13T22:01:36.324Z,8.20
2022-09-13T22:04:03.020Z,6.00
2022-09-13T22:06:35.287Z,8.23
2022-09-13T22:09:05.492Z,9.33
2022-09-13T22:11:37.120Z,9.77
2022-09-13T22:14:03.887Z,7.60
2022-09-13T22:16:35.352Z,7.63
2022-09-13T22:19:11.484Z,10.43
2022-09-13T22:21:41.148Z,7.33
2022-09-13T22:24:09.236Z,5.97
2022-09-13T22:26:40.962Z,8.47
2022-09-13T22:29:09.780Z,4.93
2022-09-13T22:31:41.411Z,10.50
2022-09-13T22:34:14.322Z,8.50
2022-09-13T22:36:43.520Z,11.37
2022-09-13T22:39:12.980Z,4.33
2022-09-13T22:41:39.958Z,5.17
2022-09-13T22:44:06.655Z,5.03
2022-09-13T22:46:36.128Z,5.53
2022-09-13T22:49:04.161Z,5.80
2022-09-13T22:51:31.437Z,7.47
2022-09-13T22:53:58.124Z,7.93
2022-09-13T22:56:28.503Z,6.93
2022-09-13T22:58:57.681Z,7.37
2022-09-13T23:01:25.176Z,4.87
2022-09-13T23:03:53.109Z,7.90
2022-09-13T23:06:21.464Z,8.70
2022-09-13T23:08:49.744Z,9.10
2022-09-13T23:11:21.292Z,5.43
2022-09-13T23:13:49.759Z,5.90
2022-09-13T23:16:17.561Z,5.23
2022-09-13T23:18:44.208Z,6.10
2022-09-13T23:21:13.345Z,10.67
2022-09-13T23:23:40.148Z,6.70
2022-09-13T23:26:10.039Z,8.97
2022-09-13T23:28:38.083Z,6.63
2022-09-13T23:31:15.784Z,7.63
2022-09-13T23:33:48.464Z,9.37
2022-09-13T23:36:20.927Z,9.37
2022-09-13T23:38:50.831Z,6.80
2022-09-13T23:41:19.066Z,7.83
2022-09-13T23:43:46.311Z,7.13
2022-09-13T23:46:13.092Z,8.17
2022-09-13T23:48:42.899Z,5.97
2022-09-13T23:51:13.002Z,10.53
2022-09-13T23:53:39.982Z,9.57
2022-09-13T23:56:08.529Z,6.87
2022-09-13T23:58:36.993Z,8.97
